Time;durP1;ratioP1;P1;durP2;ratioP2;P2;SDS_P1;SDS_P2;PMS_P1;PMS_P2;Temp;Humidity;BMP_temperature;BMP_pressure;BME280_temperature;BME280_humidity;BME280_pressure;Samples;Min_cycle;Max_cycle;Signal;HPM_P1;HPM_P2
2023/01/12 00:02:32;;;;;;;3.90;1.30;;;10.00;99.90;;;;;;10441644;28;20191;-66
2023/01/12 00:07:33;;;;;;;3.40;0.93;;;10.00;99.90;;;;;;10433211;28;20041;-67
2023/01/12 00:12:34;;;;;;;2.80;1.20;;;10.00;99.90;;;;;;10438921;28;20033;-67
2023/01/12 00:17:35;;;;;;;4.00;1.10;;;9.90;99.90;;;;;;10440172;28;20478;-67
2023/01/12 00:22:36;;;;;;;7.22;1.38;;;10.00;99.90;;;;;;10433666;28;20132;-66
2023/01/12 00:27:37;;;;;;;3.25;1.48;;;10.00;99.90;;;;;;10432059;28;20104;-67
2023/01/12 00:32:37;;;;;;;3.33;1.00;;;10.00;99.90;;;;;;10434206;28;20040;-67
2023/01/12 00:37:38;;;;;;;3.08;0.80;;;10.00;99.90;;;;;;10435938;28;20025;-67
2023/01/12 00:47:58;;;;;;;4.32;1.10;;;10.00;99.90;;;;;;10429172;28;20064;-67
2023/01/12 00:52:58;;;;;;;3.90;0.90;;;10.10;99.90;;;;;;10441435;28;20116;-66
2023/01/12 00:57:59;;;;;;;2.50;0.85;;;10.00;99.90;;;;;;10427026;28;20024;-67
2023/01/12 01:03:00;;;;;;;2.15;0.95;;;10.00;99.90;;;;;;10434396;28;20346;-67
2023/01/12 01:08:02;;;;;;;6.45;1.13;;;10.00;99.90;;;;;;10434804;28;20024;-66
2023/01/12 01:13:03;;;;;;;3.60;0.90;;;10.00;99.90;;;;;;10427309;28;20332;-67
2023/01/12 01:18:03;;;;;;;3.53;0.88;;;10.00;99.90;;;;;;10433505;28;20529;-66
2023/01/12 01:23:04;;;;;;;5.65;1.17;;;10.00;99.90;;;;;;10433039;28;20128;-66
2023/01/12 01:28:04;;;;;;;6.95;1.25;;;10.00;99.90;;;;;;10434826;28;20053;-66
2023/01/12 01:33:05;;;;;;;4.35;1.38;;;10.00;99.90;;;;;;10423273;28;20017;-66
2023/01/12 01:38:06;;;;;;;4.53;1.27;;;10.00;99.90;;;;;;10435231;28;20029;-66
2023/01/12 01:43:12;;;;;;;5.05;1.17;;;10.00;99.90;;;;;;10437844;28;20033;-66
2023/01/12 01:48:15;;;;;;;7.18;1.48;;;10.00;99.90;;;;;;10424296;28;20324;-66
2023/01/12 01:53:21;;;;;;;10.35;2.42;;;10.60;99.90;;;;;;10438442;28;20025;-66
2023/01/12 01:59:01;;;;;;;2.83;0.93;;;10.00;99.90;;;;;;10437745;28;20032;-66
2023/01/12 02:04:03;;;;;;;3.55;1.00;;;10.00;99.90;;;;;;10380845;28;20164;-66
2023/01/12 02:09:13;;;;;;;3.25;1.27;;;10.00;99.90;;;;;;10436426;28;20017;-67
2023/01/12 02:19:43;;;;;;;5.18;1.15;;;10.00;99.90;;;;;;10438529;28;20535;-67
2023/01/12 02:25:12;;;;;;;1.95;0.95;;;10.00;99.90;;;;;;10434218;28;20040;-67
2023/01/12 02:30:25;;;;;;;4.95;1.35;;;10.00;99.90;;;;;;10419528;28;20036;-67
2023/01/12 02:35:42;;;;;;;4.15;0.90;;;10.00;99.90;;;;;;10424142;28;20470;-66
2023/01/12 02:40:47;;;;;;;3.85;0.93;;;10.00;99.90;;;;;;11515256;23;20501;-67
2023/01/12 02:45:53;;;;;;;3.60;1.27;;;10.00;99.90;;;;;;10409382;28;20448;-67
2023/01/12 02:51:09;;;;;;;3.80;1.27;;;10.00;99.90;;;;;;10400046;28;20024;-67
2023/01/12 02:56:12;;;;;;;3.65;1.05;;;10.00;99.90;;;;;;10403948;28;20497;-67
2023/01/12 03:01:15;;;;;;;5.78;1.08;;;10.00;99.90;;;;;;10420772;28;20393;-67
2023/01/12 03:06:17;;;;;;;4.65;1.20;;;10.00;99.90;;;;;;10426708;28;20021;-66
2023/01/12 03:11:21;;;;;;;4.10;0.95;;;10.00;99.90;;;;;;10433082;28;20029;-66
2023/01/12 03:16:33;;;;;;;3.63;1.02;;;10.00;99.90;;;;;;10409138;28;20432;-66
2023/01/12 03:21:38;;;;;;;6.28;1.70;;;10.00;99.90;;;;;;10432349;28;20035;-66
2023/01/12 03:26:42;;;;;;;3.92;0.95;;;10.00;99.90;;;;;;10438406;28;20531;-66
2023/01/12 03:31:44;;;;;;;4.72;1.75;;;10.00;99.90;;;;;;10432535;28;20026;-66
2023/01/12 03:36:53;;;;;;;6.00;1.23;;;10.10;99.90;;;;;;10417777;28;20429;-66
2023/01/12 03:42:25;;;;;;;3.95;1.10;;;10.00;99.90;;;;;;10439684;28;20507;-67
2023/01/12 03:47:29;;;;;;;3.35;0.93;;;10.00;99.90;;;;;;10412841;28;20029;-66
2023/01/12 03:52:31;;;;;;;2.58;1.10;;;10.00;99.90;;;;;;10430294;28;20028;-67
2023/01/12 03:57:33;;;;;;;4.80;1.00;;;10.00;99.90;;;;;;10421728;28;20511;-67
2023/01/12 04:02:34;;;;;;;5.35;1.20;;;10.00;99.90;;;;;;10429317;28;20037;-66
2023/01/12 04:07:34;;;;;;;6.18;1.45;;;10.10;99.90;;;;;;10415003;28;20432;-67
2023/01/12 04:12:35;;;;;;;1.42;0.90;;;10.00;99.90;;;;;;10408389;28;20013;-67
2023/01/12 04:17:35;;;;;;;3.63;1.02;;;10.00;99.90;;;;;;10420368;28;20029;-66
2023/01/12 04:22:42;;;;;;;3.15;0.90;;;10.00;99.90;;;;;;10414060;28;20029;-66
2023/01/12 04:27:52;;;;;;;2.95;1.00;;;10.10;99.90;;;;;;10435663;28;20017;-66
2023/01/12 04:32:54;;;;;;;2.70;0.98;;;10.00;99.90;;;;;;10438822;28;20024;-66
2023/01/12 04:37:55;;;;;;;4.28;1.25;;;10.00;99.90;;;;;;10417876;28;20032;-66
2023/01/12 04:43:08;;;;;;;3.75;1.00;;;9.70;99.90;;;;;;10409201;28;20037;-66
2023/01/12 04:48:11;;;;;;;5.70;1.30;;;10.00;99.90;;;;;;10411988;28;20071;-66
2023/01/12 04:53:12;;;;;;;3.15;0.80;;;10.00;99.90;;;;;;10408192;28;20498;-67
2023/01/12 04:58:13;;;;;;;2.60;1.00;;;10.00;99.90;;;;;;10414316;28;20025;-66
2023/01/12 05:03:14;;;;;;;1.35;0.80;;;10.00;99.90;;;;;;10427780;28;20245;-66
2023/01/12 05:13:34;;;;;;;;;;;10.00;99.90;;;;;;10405508;28;20061;-66
2023/01/12 05:18:35;;;;;;;2.35;0.60;;;8.90;99.90;;;;;;10409424;28;19936;-66
2023/01/12 05:23:35;;;;;;;3.90;0.80;;;10.00;99.90;;;;;;10420150;28;20287;-66
2023/01/12 05:28:36;;;;;;;2.67;0.77;;;10.00;99.90;;;;;;10422830;28;20059;-66
2023/01/12 05:33:38;;;;;;;3.65;1.67;;;10.40;99.90;;;;;;10419408;28;20331;-67
2023/01/12 05:38:39;;;;;;;2.13;0.60;;;10.20;99.90;;;;;;10404652;28;20524;-66
2023/01/12 05:43:50;;;;;;;3.38;0.77;;;10.00;99.90;;;;;;10411959;28;20029;-66
2023/01/12 05:48:52;;;;;;;2.17;0.70;;;10.00;99.90;;;;;;10411863;28;20281;-66
2023/01/12 05:53:53;;;;;;;1.92;0.70;;;10.00;99.90;;;;;;10414430;28;20020;-67
2023/01/12 05:58:57;;;;;;;1.20;0.70;;;10.00;99.90;;;;;;10407275;28;20045;-66
2023/01/12 06:03:59;;;;;;;2.47;0.80;;;10.00;99.90;;;;;;10402466;28;20037;-67
2023/01/12 06:09:01;;;;;;;4.10;0.90;;;10.00;99.90;;;;;;10402214;28;20056;-66
2023/01/12 06:14:02;;;;;;;1.90;0.60;;;10.40;99.90;;;;;;10438686;28;20067;-66
2023/01/12 06:19:03;;;;;;;1.05;0.65;;;9.90;99.90;;;;;;10437650;28;20021;-67
2023/01/12 06:24:05;;;;;;;1.90;0.73;;;10.00;99.90;;;;;;10438733;28;20060;-66
2023/01/12 06:29:05;;;;;;;1.20;0.70;;;10.00;99.90;;;;;;10432191;28;20071;-66
2023/01/12 06:34:07;;;;;;;1.13;0.50;;;10.00;99.90;;;;;;10421988;28;20071;-67
2023/01/12 06:39:10;;;;;;;0.95;0.52;;;10.00;99.90;;;;;;10444256;28;20021;-66
2023/01/12 06:44:10;;;;;;;1.05;0.50;;;10.00;99.90;;;;;;10440679;28;20257;-66
2023/01/12 06:49:11;;;;;;;0.40;0.40;;;10.00;99.90;;;;;;10420215;28;20061;-66
2023/01/12 06:54:11;;;;;;;0.77;0.40;;;10.00;99.90;;;;;;10405287;28;20040;-67
2023/01/12 06:59:12;;;;;;;0.90;0.30;;;10.00;99.90;;;;;;10426143;28;20024;-66
2023/01/12 07:04:13;;;;;;;0.73;0.40;;;10.00;99.90;;;;;;10428854;28;20036;-66
2023/01/12 07:09:14;;;;;;;2.42;0.50;;;10.00;99.90;;;;;;10443055;28;20453;-67
2023/01/12 07:14:15;;;;;;;1.58;0.35;;;10.00;99.90;;;;;;10442512;28;20033;-67
2023/01/12 07:19:16;;;;;;;2.28;0.40;;;10.20;99.90;;;;;;10435730;28;20059;-66
2023/01/12 07:24:17;;;;;;;1.90;0.40;;;10.00;99.90;;;;;;10442000;28;20456;-66
2023/01/12 07:29:17;;;;;;;2.33;0.60;;;11.20;99.90;;;;;;10427567;28;20432;-66
2023/01/12 07:34:18;;;;;;;1.08;0.50;;;10.00;99.90;;;;;;10431637;28;20029;-66
2023/01/12 07:39:19;;;;;;;0.73;0.50;;;10.00;99.90;;;;;;10432538;28;20559;-67
2023/01/12 07:44:23;;;;;;;0.40;0.40;;;10.00;99.90;;;;;;10432816;28;20079;-67
2023/01/12 07:49:24;;;;;;;0.47;0.40;;;10.10;99.90;;;;;;10432213;28;20017;-67
2023/01/12 07:54:25;;;;;;;1.02;0.55;;;10.40;99.90;;;;;;10443171;28;20307;-66
2023/01/12 07:59:26;;;;;;;2.97;0.60;;;10.10;99.90;;;;;;10436541;28;20017;-67
2023/01/12 08:04:27;;;;;;;0.43;0.30;;;10.10;99.90;;;;;;10436036;28;20037;-67
2023/01/12 08:09:27;;;;;;;2.08;0.40;;;10.10;99.90;;;;;;10430753;28;20250;-67
2023/01/12 08:14:36;;;;;;;1.00;0.55;;;10.10;99.90;;;;;;10436286;28;20029;-67
2023/01/12 08:19:42;;;;;;;1.38;0.40;;;10.10;99.90;;;;;;10449909;28;20020;-66
2023/01/12 08:24:49;;;;;;;3.50;0.70;;;10.10;99.90;;;;;;10433730;28;20706;-68
2023/01/12 08:29:54;;;;;;;1.08;0.50;;;10.10;99.90;;;;;;10436692;28;20071;-68
2023/01/12 08:34:59;;;;;;;3.85;0.60;;;10.10;99.90;;;;;;10437097;28;20681;-68
2023/01/12 08:40:01;;;;;;;1.40;0.65;;;10.20;99.90;;;;;;10436691;28;20017;-66
2023/01/12 08:45:02;;;;;;;4.22;0.90;;;10.20;99.90;;;;;;10429549;28;20485;-68
2023/01/12 08:50:04;;;;;;;1.10;0.38;;;10.20;99.90;;;;;;10434034;28;20059;-67
2023/01/12 08:55:05;;;;;;;3.17;0.73;;;10.20;99.90;;;;;;10425597;28;20465;-67
2023/01/12 09:00:07;;;;;;;2.88;0.90;;;10.20;99.90;;;;;;10434363;28;20028;-68
2023/01/12 09:05:08;;;;;;;2.13;0.60;;;10.20;99.90;;;;;;10433091;28;20037;-67
2023/01/12 09:10:09;;;;;;;2.90;0.70;;;10.30;99.90;;;;;;10432435;28;20132;-69
2023/01/12 09:15:10;;;;;;;2.40;0.80;;;10.30;99.90;;;;;;10423489;28;20024;-67
2023/01/12 09:20:11;;;;;;;7.75;0.93;;;10.30;99.90;;;;;;10425278;28;20096;-68
2023/01/12 09:25:11;;;;;;;3.75;0.60;;;10.40;99.90;;;;;;10428105;28;20495;-68
2023/01/12 09:30:12;;;;;;;2.75;1.10;;;10.40;99.90;;;;;;10434218;28;20028;-67
2023/01/12 09:35:13;;;;;;;3.55;1.00;;;10.40;99.90;;;;;;10437109;28;20025;-68
2023/01/12 09:40:15;;;;;;;2.65;0.70;;;10.40;99.90;;;;;;10416410;28;20189;-68
2023/01/12 09:50:47;;;;;;;6.43;0.70;;;10.40;99.90;;;;;;10425777;28;20075;-67
2023/01/12 09:56:00;;;;;;;4.75;1.30;;;10.40;99.90;;;;;;10427362;28;20017;-67
2023/01/12 10:01:08;;;;;;;6.05;0.95;;;10.40;99.90;;;;;;10428166;28;20107;-67
2023/01/12 10:06:18;;;;;;;4.25;1.00;;;10.50;99.90;;;;;;10430709;28;20041;-66
2023/01/12 10:11:45;;;;;;;3.78;0.80;;;10.50;99.90;;;;;;10431600;28;20030;-66
2023/01/12 10:17:25;;;;;;;5.32;1.05;;;10.50;99.90;;;;;;10409321;28;20291;-67
2023/01/12 10:22:47;;;;;;;5.72;1.13;;;10.50;99.90;;;;;;10440074;28;20130;-67
2023/01/12 10:27:51;;;;;;;5.38;0.95;;;10.50;99.90;;;;;;10433661;28;20624;-67
2023/01/12 10:32:51;;;;;;;5.82;1.08;;;10.60;99.90;;;;;;10437529;28;20567;-67
2023/01/12 10:37:54;;;;;;;2.83;1.00;;;10.50;99.90;;;;;;10427595;28;20143;-67
2023/01/12 10:43:30;;;;;;;4.07;1.10;;;10.50;99.90;;;;;;10434826;28;20037;-67
2023/01/12 10:48:31;;;;;;;3.33;0.75;;;10.50;99.90;;;;;;10437948;28;20048;-67
2023/01/12 10:53:42;;;;;;;4.57;1.17;;;10.50;99.90;;;;;;10441323;28;20021;-68
2023/01/12 10:58:49;;;;;;;5.18;0.70;;;10.50;99.90;;;;;;10433232;28;20025;-67
2023/01/12 11:03:50;;;;;;;4.47;1.00;;;10.60;99.90;;;;;;10437433;28;20040;-67
2023/01/12 11:08:51;;;;;;;5.90;1.30;;;10.60;99.90;;;;;;10444426;28;20423;-68
2023/01/12 11:13:54;;;;;;;3.78;1.10;;;10.60;99.90;;;;;;10442443;28;20117;-67
2023/01/12 11:19:14;;;;;;;3.28;0.90;;;10.60;99.90;;;;;;10436717;28;20021;-68
2023/01/12 11:24:32;;;;;;;3.28;0.82;;;10.60;99.90;;;;;;10440465;28;20120;-67
2023/01/12 11:29:52;;;;;;;4.03;1.00;;;10.70;99.90;;;;;;10446292;28;20062;-68
2023/01/12 11:35:05;;;;;;;3.72;0.82;;;10.70;99.90;;;;;;10428213;28;20505;-67
2023/01/12 11:40:22;;;;;;;3.92;0.93;;;10.70;99.90;;;;;;10450692;28;20036;-67
2023/01/12 11:45:39;;;;;;;4.00;1.00;;;10.70;99.90;;;;;;10443445;28;20041;-67
2023/01/12 11:50:42;;;;;;;5.00;1.27;;;10.70;99.90;;;;;;10439986;28;20511;-67
2023/01/12 11:55:51;;;;;;;4.28;0.80;;;10.70;99.90;;;;;;10446867;28;20021;-67
2023/01/12 12:01:25;;;;;;;5.65;1.65;;;10.80;99.90;;;;;;10434892;28;20017;-67
2023/01/12 12:06:55;;;;;;;5.80;1.02;;;10.80;99.90;;;;;;10434313;28;20388;-68
2023/01/12 12:12:04;;;;;;;3.75;1.08;;;10.80;99.90;;;;;;10431928;28;20063;-68
2023/01/12 12:17:35;;;;;;;2.50;0.98;;;10.80;99.90;;;;;;10442228;28;20021;-69
2023/01/12 12:22:55;;;;;;;7.47;1.20;;;10.80;99.90;;;;;;10428386;28;20509;-68
2023/01/12 12:28:17;;;;;;;4.88;1.35;;;10.80;99.90;;;;;;10446379;28;20456;-70
2023/01/12 12:33:25;;;;;;;4.93;1.20;;;10.90;99.90;;;;;;10429455;28;20021;-68
2023/01/12 12:38:41;;;;;;;5.67;1.07;;;10.90;99.90;;;;;;10426804;28;20031;-69
2023/01/12 12:49:09;;;;;;;6.65;1.42;;;10.90;99.90;;;;;;10420573;28;20393;-69
2023/01/12 12:54:13;;;;;;;;;;;11.80;99.90;;;;;;10445704;28;20095;-68
2023/01/12 12:59:32;;;;;;;5.00;0.90;;;10.90;99.90;;;;;;10440506;28;20114;-68
2023/01/12 13:04:53;;;;;;;8.30;1.88;;;10.90;99.90;;;;;;10430216;28;20469;-69
2023/01/12 13:10:19;;;;;;;4.40;0.95;;;10.90;99.90;;;;;;10430450;28;20246;-72
2023/01/12 13:15:28;;;;;;;3.55;0.93;;;10.90;99.90;;;;;;10419965;28;20029;-66
2023/01/12 13:20:58;;;;;;;5.38;1.30;;;10.90;99.90;;;;;;10426205;28;20319;-67
2023/01/12 13:25:58;;;;;;;7.20;1.52;;;10.90;99.90;;;;;;10433249;28;20052;-66
2023/01/12 13:31:01;;;;;;;4.25;1.10;;;10.90;99.90;;;;;;10438280;28;20025;-66
2023/01/12 13:36:07;;;;;;;7.20;1.30;;;10.90;99.90;;;;;;10427905;28;20500;-66
2023/01/12 13:47:21;;;;;;;3.65;1.10;;;10.90;99.90;;;;;;10434999;28;20032;-67
2023/01/12 13:52:29;;;;;;;3.58;1.10;;;10.90;99.90;;;;;;10432300;28;20080;-67
2023/01/12 13:57:30;;;;;;;4.00;1.30;;;10.90;99.90;;;;;;10426169;28;20246;-67
2023/01/12 14:02:31;;;;;;;2.88;1.20;;;10.90;99.90;;;;;;10423485;28;20563;-67
2023/01/12 14:07:45;;;;;;;4.57;1.20;;;10.90;99.90;;;;;;10434003;28;20021;-62
2023/01/12 14:13:11;;;;;;;2.33;1.10;;;10.90;99.90;;;;;;10435329;28;20032;-65
2023/01/12 14:18:17;;;;;;;3.30;1.00;;;10.90;99.90;;;;;;10427505;28;20021;-67
2023/01/12 14:23:27;;;;;;;4.05;0.93;;;10.90;99.90;;;;;;10431924;28;20493;-70
2023/01/12 14:28:28;;;;;;;3.70;0.90;;;10.90;99.90;;;;;;10432399;28;20104;-69
2023/01/12 14:33:31;;;;;;;6.22;1.15;;;10.90;99.90;;;;;;10434832;28;20024;-67
2023/01/12 14:38:35;;;;;;;3.38;0.90;;;10.90;99.90;;;;;;10422060;28;20079;-67
2023/01/12 14:49:16;;;;;;;3.45;0.82;;;10.90;99.90;;;;;;10422725;28;20056;-67
2023/01/12 14:54:18;;;;;;;2.65;0.95;;;10.90;99.90;;;;;;10432716;28;20025;-69
2023/01/12 14:59:22;;;;;;;4.18;1.00;;;10.90;99.90;;;;;;10441392;28;20022;-67
2023/01/12 15:04:24;;;;;;;3.95;0.95;;;10.90;99.90;;;;;;10454080;28;20488;-68
2023/01/12 15:09:31;;;;;;;3.25;1.08;;;10.90;99.90;;;;;;10427567;28;20052;-66
2023/01/12 15:14:31;;;;;;;1.30;0.60;;;10.90;99.90;;;;;;10437118;28;20401;-68
2023/01/12 15:30:13;;;;;;;1.42;0.63;;;10.90;99.90;;;;;;10434596;28;20067;-67
2023/01/12 15:35:17;;;;;;;2.45;0.63;;;10.90;99.90;;;;;;10425510;28;20547;-66
2023/01/12 15:40:18;;;;;;;2.75;1.20;;;10.90;99.90;;;;;;10430839;28;20024;-66
2023/01/12 15:45:36;;;;;;;1.20;0.80;;;10.90;99.90;;;;;;10431322;28;20094;-66
2023/01/12 15:50:39;;;;;;;2.88;0.77;;;10.90;99.90;;;;;;10450256;28;20021;-66
2023/01/12 15:55:40;;;;;;;1.67;0.80;;;10.90;99.90;;;;;;10438664;28;20056;-67
2023/01/12 16:00:42;;;;;;;2.88;0.95;;;10.90;99.90;;;;;;10427498;28;20433;-66
2023/01/12 16:05:45;;;;;;;1.38;0.70;;;10.90;99.90;;;;;;10439052;28;20037;-67
2023/01/12 16:16:06;;;;;;;2.72;0.80;;;10.90;99.90;;;;;;10430605;28;20451;-67
2023/01/12 16:21:11;;;;;;;1.20;0.60;;;10.90;99.90;;;;;;10429666;28;20036;-67
2023/01/12 16:26:11;;;;;;;1.73;0.68;;;10.90;99.90;;;;;;10436098;28;20132;-65
2023/01/12 16:31:13;;;;;;;1.48;0.60;;;10.90;99.90;;;;;;10449285;28;20497;-66
2023/01/12 16:36:14;;;;;;;1.42;0.68;;;10.90;99.90;;;;;;10426304;28;20059;-68
2023/01/12 16:41:21;;;;;;;2.00;0.88;;;10.90;99.90;;;;;;10438656;28;20028;-69
2023/01/12 16:46:21;;;;;;;3.13;0.70;;;10.90;99.90;;;;;;10434458;28;20443;-68
2023/01/12 16:51:23;;;;;;;2.33;0.65;;;10.90;99.90;;;;;;10437550;28;20025;-68
2023/01/12 16:56:24;;;;;;;1.33;0.68;;;10.90;99.90;;;;;;10431876;28;20035;-69
2023/01/12 17:01:25;;;;;;;2.83;0.70;;;11.00;99.90;;;;;;10426596;28;20238;-66
2023/01/12 17:06:27;;;;;;;1.73;0.73;;;11.20;99.90;;;;;;10434886;28;20063;-67
2023/01/12 17:11:29;;;;;;;2.25;0.90;;;11.00;99.90;;;;;;10435286;28;20020;-68
2023/01/12 17:16:30;;;;;;;2.47;1.20;;;11.00;99.90;;;;;;10432861;28;20028;-68
2023/01/12 17:21:30;;;;;;;1.25;0.70;;;11.00;99.90;;;;;;10433390;28;20048;-66
2023/01/12 17:26:31;;;;;;;1.92;0.90;;;11.00;99.90;;;;;;10428504;28;20036;-66
2023/01/12 17:31:32;;;;;;;1.33;0.85;;;11.00;99.90;;;;;;10426772;28;20052;-65
2023/01/12 17:36:33;;;;;;;1.35;0.50;;;11.00;99.90;;;;;;10431891;28;20435;-66
2023/01/12 17:46:53;;;;;;;1.00;0.60;;;11.10;99.90;;;;;;10434944;28;20036;-65
2023/01/12 17:51:53;;;;;;;2.70;0.73;;;11.00;99.90;;;;;;10432759;28;20021;-65
2023/01/12 17:56:54;;;;;;;0.77;0.52;;;11.00;99.90;;;;;;10431094;28;20021;-65
2023/01/12 18:01:54;;;;;;;1.17;0.40;;;11.00;99.90;;;;;;10432479;28;20033;-65
2023/01/12 18:06:55;;;;;;;1.98;0.70;;;11.60;99.90;;;;;;10433628;28;20477;-66
2023/01/12 18:11:56;;;;;;;2.33;0.90;;;11.90;99.90;;;;;;10434642;28;20028;-65
2023/01/12 18:16:56;;;;;;;1.30;0.85;;;11.00;99.90;;;;;;10434676;28;20039;-65
2023/01/12 18:21:57;;;;;;;1.60;0.80;;;11.00;99.90;;;;;;10442803;28;20017;-66
2023/01/12 18:26:58;;;;;;;1.27;0.90;;;11.00;99.90;;;;;;10432386;28;20489;-66
2023/01/12 18:31:59;;;;;;;1.33;0.80;;;11.00;99.90;;;;;;10434885;28;20028;-66
2023/01/12 18:36:59;;;;;;;2.47;0.75;;;11.00;99.90;;;;;;10423857;28;20029;-66
2023/01/12 18:57:58;;;;;;;2.05;0.90;;;11.00;99.90;;;;;;10434985;28;20071;-65
2023/01/12 19:02:59;;;;;;;1.38;0.82;;;11.00;99.90;;;;;;10436907;28;20533;-66
2023/01/12 19:18:19;;;;;;;1.63;0.82;;;11.00;99.90;;;;;;10435941;28;20064;-65
2023/01/12 19:28:39;;;;;;;1.63;0.80;;;11.00;99.90;;;;;;10431943;28;20033;-65
2023/01/12 19:33:43;;;;;;;3.25;0.93;;;11.00;99.90;;;;;;10434976;28;20020;-66
2023/01/12 19:38:47;;;;;;;1.70;0.90;;;11.00;99.90;;;;;;10438765;28;20079;-66
2023/01/12 19:43:48;;;;;;;2.47;1.00;;;11.00;99.90;;;;;;10438272;28;20033;-66
2023/01/12 19:48:48;;;;;;;1.67;1.10;;;10.90;99.90;;;;;;10435153;28;20030;-66
2023/01/12 19:53:49;;;;;;;3.17;0.80;;;11.00;99.90;;;;;;10435574;28;20029;-66
2023/01/12 19:58:50;;;;;;;2.38;0.93;;;10.90;99.90;;;;;;10437098;28;20021;-66
2023/01/12 20:03:51;;;;;;;1.27;1.05;;;11.00;99.90;;;;;;10437637;28;20091;-65
2023/01/12 20:08:51;;;;;;;1.75;0.95;;;11.00;99.90;;;;;;10439607;28;20075;-66
2023/01/12 20:13:52;;;;;;;2.13;1.10;;;11.00;99.90;;;;;;10439614;28;20393;-66
2023/01/12 20:18:56;;;;;;;2.90;1.20;;;11.00;99.90;;;;;;10440116;28;20032;-66
2023/01/12 20:23:56;;;;;;;1.20;0.80;;;11.00;99.90;;;;;;10439776;28;20048;-65
2023/01/12 20:28:58;;;;;;;3.83;1.27;;;11.00;99.90;;;;;;10443770;28;20032;-66
2023/01/12 20:33:59;;;;;;;1.17;1.08;;;11.00;99.90;;;;;;10439087;28;20070;-66
2023/01/12 20:38:59;;;;;;;2.58;1.05;;;11.00;99.90;;;;;;10433537;28;20494;-66
2023/01/12 20:44:00;;;;;;;1.10;1.00;;;11.00;99.90;;;;;;10433285;28;20203;-65
2023/01/12 20:49:01;;;;;;;2.13;1.05;;;11.00;99.90;;;;;;10436591;28;20104;-66
2023/01/12 20:54:03;;;;;;;3.97;1.15;;;11.00;99.90;;;;;;10437167;28;20389;-65
2023/01/12 20:59:04;;;;;;;1.95;1.10;;;11.00;99.90;;;;;;10435733;28;20540;-66
2023/01/12 21:04:05;;;;;;;2.38;1.30;;;11.00;99.90;;;;;;10433341;28;20032;-66
2023/01/12 21:09:05;;;;;;;1.50;1.20;;;11.00;99.90;;;;;;10434222;28;20044;-65
2023/01/12 21:14:06;;;;;;;3.05;1.10;;;11.30;99.90;;;;;;10435676;28;20109;-66
2023/01/12 21:19:07;;;;;;;1.40;1.02;;;11.00;99.90;;;;;;10449396;28;20063;-66
2023/01/12 21:24:09;;;;;;;1.95;1.15;;;11.00;99.90;;;;;;10435489;28;20044;-66
2023/01/12 21:29:10;;;;;;;1.73;1.10;;;11.00;99.90;;;;;;10433179;28;20025;-66
2023/01/12 21:34:10;;;;;;;1.63;1.30;;;11.00;99.90;;;;;;10436285;28;20040;-66
2023/01/12 21:39:11;;;;;;;2.17;1.00;;;11.00;99.90;;;;;;10424184;28;20504;-66
2023/01/12 21:44:11;;;;;;;2.33;1.15;;;11.10;99.90;;;;;;10424523;28;20037;-66
2023/01/12 21:49:12;;;;;;;1.30;1.05;;;10.90;99.90;;;;;;10434123;28;20043;-66
2023/01/12 21:54:13;;;;;;;2.60;1.10;;;10.90;99.90;;;;;;10438199;28;20036;-66
2023/01/12 21:59:13;;;;;;;1.58;0.98;;;10.90;99.90;;;;;;10438886;28;20024;-66
2023/01/12 22:04:14;;;;;;;2.60;1.05;;;10.90;99.90;;;;;;10434379;28;20040;-66
2023/01/12 22:09:14;;;;;;;1.52;0.75;;;10.90;99.90;;;;;;10438280;28;20025;-66
2023/01/12 22:14:15;;;;;;;4.10;1.15;;;10.90;99.90;;;;;;10447397;28;20036;-66
2023/01/12 22:19:16;;;;;;;2.15;1.10;;;10.90;99.90;;;;;;10441297;28;20424;-65
2023/01/12 22:24:16;;;;;;;1.30;1.10;;;10.90;99.90;;;;;;10442005;28;20205;-66
2023/01/12 22:29:17;;;;;;;2.50;1.00;;;10.90;99.90;;;;;;10441737;28;20021;-66
2023/01/12 22:34:18;;;;;;;1.95;0.95;;;10.90;99.90;;;;;;10430705;28;20389;-65
2023/01/12 22:39:18;;;;;;;1.70;0.95;;;10.90;99.90;;;;;;10433152;28;20025;-66
2023/01/12 22:44:19;;;;;;;1.27;0.75;;;10.90;99.90;;;;;;10444362;28;20071;-66
2023/01/12 22:49:20;;;;;;;6.40;1.13;;;10.90;99.90;;;;;;10439900;28;20017;-65
2023/01/12 22:54:21;;;;;;;3.50;1.00;;;10.90;99.90;;;;;;10439994;28;20452;-65
2023/01/12 22:59:21;;;;;;;3.17;0.80;;;12.00;99.90;;;;;;10440037;28;20854;-65
2023/01/12 23:04:22;;;;;;;3.90;0.77;;;10.80;99.90;;;;;;10437392;28;20481;-65
2023/01/12 23:09:23;;;;;;;1.08;0.75;;;10.90;99.90;;;;;;10439583;28;20017;-66
2023/01/12 23:14:23;;;;;;;1.77;0.55;;;10.90;99.90;;;;;;10438783;28;20436;-66
2023/01/12 23:19:24;;;;;;;1.58;1.00;;;10.80;99.90;;;;;;10435354;28;20481;-66
2023/01/12 23:24:25;;;;;;;2.45;0.95;;;10.80;99.90;;;;;;10440421;28;20041;-65
2023/01/12 23:29:25;;;;;;;2.08;0.70;;;10.80;99.90;;;;;;10443159;28;20029;-65
2023/01/12 23:34:26;;;;;;;3.05;0.80;;;10.80;99.90;;;;;;10443187;28;20029;-66
2023/01/12 23:39:26;;;;;;;4.28;1.00;;;10.80;99.90;;;;;;10442309;28;20025;-66
2023/01/12 23:44:27;;;;;;;3.78;1.05;;;10.80;99.90;;;;;;10442442;28;20124;-65
2023/01/12 23:49:28;;;;;;;1.67;1.02;;;10.70;99.90;;;;;;10441823;28;20482;-65
2023/01/12 23:54:29;;;;;;;5.05;1.02;;;10.70;99.90;;;;;;10435113;28;20029;-66
2023/01/12 23:59:30;;;;;;;2.50;0.93;;;10.50;99.90;;;;;;10437151;28;20071;-66
